Time;durP1;ratioP1;P1;durP2;ratioP2;P2;SDS_P1;SDS_P2;PMS_P1;PMS_P2;Temp;Humidity;BMP_temperature;BMP_pressure;BME280_temperature;BME280_humidity;BME280_pressure;Samples;Min_cycle;Max_cycle;Signal;HPM_P1;HPM_P2
2022/06/08 00:00:57;;;;;;;2.60;1.93;;;;;;;18.76;74.98;100233.56;5064537;28;20212;-67
2022/06/08 00:03:32;;;;;;;3.87;2.00;;;;;;;18.70;74.89;100223.66;5063128;28;20222;-67
2022/06/08 00:06:00;;;;;;;4.93;2.20;;;;;;;18.63;75.30;100230.91;5065456;28;20199;-68
2022/06/08 00:08:30;;;;;;;3.73;2.00;;;;;;;18.61;75.54;100225.72;5062197;28;20600;-68
2022/06/08 00:10:58;;;;;;;3.17;1.83;;;;;;;18.58;75.54;100222.63;5068942;28;20597;-67
2022/06/08 00:13:26;;;;;;;3.93;1.87;;;;;;;18.54;75.98;100226.72;5065346;28;20204;-67
2022/06/08 00:15:54;;;;;;;6.33;2.40;;;;;;;18.49;75.92;100223.81;5064208;28;20222;-67
2022/06/08 00:18:23;;;;;;;3.40;1.80;;;;;;;18.50;75.72;100215.56;5062787;28;20272;-70
2022/06/08 00:20:51;;;;;;;5.90;1.87;;;;;;;18.49;76.30;100213.91;5062732;28;20230;-68
2022/06/08 00:23:19;;;;;;;3.43;1.70;;;;;;;18.46;76.30;100210.84;5063449;28;20249;-69
2022/06/08 00:25:49;;;;;;;3.80;1.70;;;;;;;18.38;76.36;100207.28;5065820;28;20334;-68
2022/06/08 00:28:17;;;;;;;6.00;2.13;;;;;;;18.33;76.69;100201.72;5063528;28;20394;-68
2022/06/08 00:30:45;;;;;;;4.20;1.77;;;;;;;18.31;76.80;100206.47;5065925;28;20268;-68
2022/06/08 00:33:13;;;;;;;6.37;2.00;;;;;;;18.29;76.83;100203.19;5067178;28;20204;-68
2022/06/08 00:35:41;;;;;;;4.13;1.90;;;;;;;18.23;76.85;100201.28;5067557;28;20208;-69
2022/06/08 00:38:09;;;;;;;4.73;1.80;;;;;;;18.29;76.49;100197.81;5069726;28;20657;-69
2022/06/08 00:40:48;;;;;;;3.10;2.00;;;;;;;18.28;76.41;100195.31;5067595;28;20227;-69
2022/06/08 00:43:18;;;;;;;4.07;1.93;;;;;;;18.22;77.00;100194.25;5058955;28;20310;-70
2022/06/08 00:45:47;;;;;;;4.13;2.00;;;;;;;18.20;77.23;100192.84;5065420;28;20215;-70
2022/06/08 00:48:16;;;;;;;4.60;2.03;;;;;;;18.21;77.04;100189.91;5066731;28;20833;-67
2022/06/08 00:50:48;;;;;;;6.30;2.10;;;;;;;18.20;76.86;100188.28;5085441;28;20243;-67
2022/06/08 00:53:18;;;;;;;3.70;2.10;;;;;;;18.20;77.03;100180.25;5081868;28;20213;-68
2022/06/08 00:55:47;;;;;;;4.20;2.30;;;;;;;18.13;77.31;100179.38;5090641;28;20651;-68
2022/06/08 00:58:23;;;;;;;6.27;2.07;;;;;;;18.13;77.46;100184.75;5084256;28;20625;-68
2022/06/08 01:00:58;;;;;;;6.53;2.50;;;;;;;18.13;77.61;100184.75;5085257;28;20305;-68
2022/06/08 01:03:27;;;;;;;5.67;2.20;;;;;;;18.13;77.93;100178.56;5086814;28;20201;-68
2022/06/08 01:06:00;;;;;;;6.43;2.60;;;;;;;18.09;78.03;100174.66;5082786;28;20207;-68
2022/06/08 01:08:31;;;;;;;4.50;2.00;;;;;;;17.99;78.19;100173.19;5085555;28;20207;-68
2022/06/08 01:11:02;;;;;;;3.53;2.50;;;;;;;17.98;78.57;100178.75;5083813;28;20224;-69
2022/06/08 01:13:35;;;;;;;4.80;2.50;;;;;;;18.04;78.15;100183.28;5081024;28;20254;-68
2022/06/08 01:16:05;;;;;;;3.97;1.83;;;;;;;18.06;78.14;100186.59;5081109;28;20218;-69
2022/06/08 01:18:34;;;;;;;5.70;2.20;;;;;;;18.13;77.50;100176.69;5082361;28;20207;-68
2022/06/08 01:21:31;;;;;;;4.10;2.20;;;;;;;18.12;77.34;100174.25;5084696;28;20664;-69
2022/06/08 01:24:04;;;;;;;5.90;2.47;;;;;;;18.00;78.31;100165.97;5083752;28;20210;-69
2022/06/08 01:26:44;;;;;;;5.73;2.80;;;;;;;17.97;78.04;100167.19;5086115;28;20194;-69
2022/06/08 01:29:19;;;;;;;4.00;2.20;;;;;;;18.04;78.12;100168.03;5079818;28;20227;-69
2022/06/08 01:31:58;;;;;;;3.70;2.30;;;;;;;18.04;78.03;100173.38;5084459;28;20191;-68
2022/06/08 01:34:38;;;;;;;3.13;2.13;;;;;;;18.07;77.82;100182.06;5082995;28;20194;-68
2022/06/08 01:37:18;;;;;;;4.00;2.30;;;;;;;18.13;77.13;100171.34;5087068;28;20301;-68
2022/06/08 01:40:01;;;;;;;5.03;2.30;;;;;;;18.17;76.87;100177.97;5080982;28;20210;-68
2022/06/08 01:42:42;;;;;;;4.00;2.10;;;;;;;18.16;77.03;100173.63;5080220;28;20290;-68
2022/06/08 01:45:29;;;;;;;3.23;2.10;;;;;;;18.08;76.99;100173.00;5082206;28;20217;-68
2022/06/08 01:48:10;;;;;;;4.80;2.67;;;;;;;17.92;78.46;100163.47;5084188;28;20230;-68
2022/06/08 01:50:56;;;;;;;5.70;2.60;;;;;;;17.84;79.08;100174.41;5083425;28;20287;-68
2022/06/08 01:53:34;;;;;;;6.10;2.50;;;;;;;17.90;78.53;100165.53;5083752;28;20537;-68
2022/06/08 01:56:14;;;;;;;6.83;2.57;;;;;;;17.84;78.66;100166.34;5080563;28;20218;-68
2022/06/08 01:58:53;;;;;;;5.77;2.33;;;;;;;17.95;77.88;100157.69;5081220;28;20559;-68
2022/06/08 02:01:27;;;;;;;4.03;2.60;;;;;;;18.00;77.09;100163.28;5083326;28;20254;-66
2022/06/08 02:04:09;;;;;;;4.43;2.93;;;;;;;17.81;78.39;100156.00;5083228;28;20639;-67
2022/06/08 02:06:46;;;;;;;5.23;3.00;;;;;;;17.76;78.57;100155.81;5090328;28;20199;-67
2022/06/08 02:09:23;;;;;;;4.60;3.10;;;;;;;17.68;79.34;100154.94;5084494;28;20285;-67
2022/06/08 02:12:02;;;;;;;5.10;3.23;;;;;;;17.74;79.05;100149.81;5084172;28;20210;-67
2022/06/08 02:14:37;;;;;;;6.80;3.47;;;;;;;17.63;79.44;100154.72;5081246;28;20256;-67
2022/06/08 02:17:10;;;;;;;6.40;3.00;;;;;;;17.62;79.74;100147.72;5083252;28;20210;-67
2022/06/08 02:19:44;;;;;;;5.70;2.53;;;;;;;17.59;79.57;100137.34;5080982;28;20202;-66
2022/06/08 02:22:17;;;;;;;6.67;3.10;;;;;;;17.58;80.11;100130.34;5080272;28;20250;-67
2022/06/08 02:24:49;;;;;;;12.70;3.07;;;;;;;17.61;79.78;100131.78;5088180;28;20203;-66
2022/06/08 02:27:23;;;;;;;4.60;2.80;;;;;;;17.57;79.77;100128.69;5083316;28;20202;-66
2022/06/08 02:29:56;;;;;;;5.73;3.00;;;;;;;17.53;79.99;100130.13;5084963;28;20532;-67
2022/06/08 02:35:18;;;;;;;5.60;2.97;;;;;;;17.56;79.11;100121.69;5080604;28;20305;-66
2022/06/08 02:37:49;;;;;;;6.23;3.00;;;;;;;17.63;79.04;100117.19;5078789;28;22062;-67
2022/06/08 02:40:20;;;;;;;5.10;2.97;;;;;;;17.74;78.52;100118.47;5085094;28;20674;-67
2022/06/08 02:42:52;;;;;;;6.93;2.90;;;;;;;17.75;78.05;100119.28;5077953;28;20207;-67
2022/06/08 02:45:26;;;;;;;7.40;3.00;;;;;;;17.70;78.61;100121.72;5079358;28;20199;-67
2022/06/08 02:48:01;;;;;;;6.50;3.20;;;;;;;17.56;79.22;100113.63;5083204;28;20206;-67
2022/06/08 02:50:31;;;;;;;5.90;3.30;;;;;;;17.54;79.54;100109.50;5082428;28;20244;-67
2022/06/08 02:53:10;;;;;;;4.23;3.07;;;;;;;17.58;79.45;100116.13;5079827;28;22932;-67
2022/06/08 02:55:45;;;;;;;7.10;3.00;;;;;;;17.68;78.66;100119.25;5080685;28;20222;-67
2022/06/08 02:58:20;;;;;;;5.10;3.10;;;;;;;17.55;79.64;100114.66;5082820;28;20217;-67
2022/06/08 03:00:56;;;;;;;5.43;2.73;;;;;;;17.62;79.30;100106.66;5081014;28;20194;-67
2022/06/08 03:03:31;;;;;;;5.87;3.20;;;;;;;17.71;79.22;100108.13;5077446;28;20301;-67
2022/06/08 03:06:05;;;;;;;8.07;3.53;;;;;;;17.70;79.14;100109.16;5083767;28;20289;-70
2022/06/08 03:08:36;;;;;;;7.47;3.63;;;;;;;17.73;78.94;100099.88;5080601;28;20273;-70
2022/06/08 03:11:07;;;;;;;3.77;3.03;;;;;;;17.73;78.84;100107.94;5082686;28;20333;-70
2022/06/08 03:13:42;;;;;;;5.47;3.30;;;;;;;17.72;79.04;100103.59;5079705;28;20203;-70
2022/06/08 03:16:26;;;;;;;5.23;3.30;;;;;;;17.66;79.43;100099.88;5083063;28;20232;-69
2022/06/08 03:18:57;;;;;;;6.53;3.50;;;;;;;17.58;80.28;100092.81;5084260;28;20234;-69
2022/06/08 03:21:26;;;;;;;5.33;3.07;;;;;;;17.58;80.09;100098.19;5085771;28;20215;-69
2022/06/08 03:23:55;;;;;;;6.70;3.00;;;;;;;17.65;79.59;100093.69;5084533;28;20299;-69
2022/06/08 03:26:35;;;;;;;4.07;2.83;;;;;;;17.73;79.46;100092.66;5084043;28;20217;-69
2022/06/08 03:29:04;;;;;;;9.13;2.63;;;;;;;17.67;79.81;100097.00;5083140;28;20695;-69
2022/06/08 03:31:34;;;;;;;5.70;2.70;;;;;;;17.83;78.97;100094.97;5092691;28;20253;-69
2022/06/08 03:34:02;;;;;;;5.70;2.80;;;;;;;17.82;78.92;100098.66;5089551;28;20298;-69
2022/06/08 03:36:29;;;;;;;4.77;2.70;;;;;;;17.82;79.22;100099.50;5083748;28;20305;-69
2022/06/08 03:38:57;;;;;;;9.43;3.73;;;;;;;17.83;79.23;100095.78;5085811;28;20211;-69
2022/06/08 03:41:31;;;;;;;7.40;2.90;;;;;;;17.82;79.45;100101.34;5087779;28;20678;-68
2022/06/08 03:43:59;;;;;;;4.43;2.83;;;;;;;17.86;79.34;100107.94;5094948;28;20206;-68
2022/06/08 03:46:29;;;;;;;5.60;3.07;;;;;;;17.81;79.70;100105.06;5092928;28;20222;-68
2022/06/08 03:48:58;;;;;;;4.57;3.30;;;;;;;17.73;80.34;100103.41;5090665;28;20646;-68
2022/06/08 03:51:26;;;;;;;6.37;3.23;;;;;;;17.69;80.64;100107.50;5086974;28;20563;-68
2022/06/08 03:53:57;;;;;;;5.93;3.33;;;;;;;17.69;80.85;100104.81;5084781;28;20305;-68
2022/06/08 03:56:27;;;;;;;6.37;3.50;;;;;;;17.66;80.44;100099.88;5084732;28;20934;-68
2022/06/08 03:58:57;;;;;;;6.50;3.73;;;;;;;17.77;80.19;100098.44;5085785;28;20786;-67
2022/06/08 04:01:26;;;;;;;6.53;3.57;;;;;;;17.86;79.53;100094.53;5091469;28;20227;-69
2022/06/08 04:03:55;;;;;;;9.23;3.90;;;;;;;17.89;79.04;100097.66;5091087;28;20900;-69
2022/06/08 04:06:24;;;;;;;5.60;3.10;;;;;;;17.88;79.34;100100.53;5094562;28;20307;-68
2022/06/08 04:08:52;;;;;;;6.57;3.10;;;;;;;17.77;79.49;100093.06;5095383;28;20333;-67
2022/06/08 04:11:20;;;;;;;5.17;3.10;;;;;;;17.80;79.37;100106.09;5091425;28;20203;-68
2022/06/08 04:13:48;;;;;;;4.67;3.27;;;;;;;17.83;79.38;100101.16;5097887;28;20238;-68
2022/06/08 04:16:16;;;;;;;7.47;3.60;;;;;;;17.80;79.45;100103.41;5092169;28;20712;-67
2022/06/08 04:18:45;;;;;;;6.97;3.53;;;;;;;17.78;79.67;100108.13;5090595;28;20718;-67
2022/06/08 04:21:15;;;;;;;6.77;3.23;;;;;;;17.85;79.46;100109.00;5089373;28;20305;-67
2022/06/08 04:23:46;;;;;;;12.00;3.23;;;;;;;17.97;78.95;100118.06;5077398;28;20211;-68
2022/06/08 04:26:16;;;;;;;7.90;3.37;;;;;;;18.03;77.88;100111.88;5083665;28;20210;-68
2022/06/08 04:28:45;;;;;;;6.90;3.97;;;;;;;17.91;78.34;100117.03;5085626;28;20298;-68
2022/06/08 04:31:13;;;;;;;7.03;3.60;;;;;;;17.81;78.51;100119.28;5088036;28;20661;-68
2022/06/08 04:33:41;;;;;;;6.50;3.70;;;;;;;17.90;78.29;100118.06;5081300;28;20206;-68
2022/06/08 04:36:14;;;;;;;4.83;3.33;;;;;;;17.73;79.16;100114.13;5086137;28;20655;-68
2022/06/08 04:38:42;;;;;;;5.80;3.50;;;;;;;17.65;79.47;100109.78;5084673;28;20640;-68
2022/06/08 04:41:10;;;;;;;7.70;3.07;;;;;;;17.62;79.82;100110.16;5086593;28;20214;-68
2022/06/08 04:43:40;;;;;;;5.63;3.70;;;;;;;17.67;79.50;100106.91;5086326;28;20223;-69
2022/06/08 04:46:12;;;;;;;8.70;3.67;;;;;;;17.74;79.65;100110.41;5088533;28;20213;-68
2022/06/08 04:48:40;;;;;;;8.07;3.27;;;;;;;17.89;78.23;100102.19;5081654;28;20210;-68
2022/06/08 04:51:08;;;;;;;10.17;3.90;;;;;;;17.89;78.32;100099.50;5081100;28;20214;-67
2022/06/08 04:53:38;;;;;;;9.17;3.67;;;;;;;17.78;79.36;100097.41;5077112;28;20643;-66
2022/06/08 04:56:07;;;;;;;15.53;4.17;;;;;;;17.75;79.49;100093.31;5081134;28;20203;-67
2022/06/08 04:58:36;;;;;;;9.53;4.20;;;;;;;17.69;79.92;100094.09;5084213;28;20472;-67
2022/06/08 05:01:05;;;;;;;6.27;3.17;;;;;;;17.77;80.21;100085.84;5078746;28;20646;-67
2022/06/08 05:03:33;;;;;;;9.03;3.53;;;;;;;17.78;80.54;100089.38;5080571;28;20318;-67
2022/06/08 05:06:03;;;;;;;7.47;3.20;;;;;;;17.79;80.44;100094.53;5083433;28;20263;-67
2022/06/08 05:08:32;;;;;;;23.90;4.83;;;;;;;17.87;79.95;100094.31;5076317;28;20293;-68
2022/06/08 05:11:07;;;;;;;14.80;4.00;;;;;;;17.99;79.47;100099.94;5080245;28;20276;-68
2022/06/08 05:13:36;;;;;;;10.27;3.40;;;;;;;18.09;78.70;100091.47;5081909;28;20678;-68
2022/06/08 05:16:05;;;;;;;28.40;6.33;;;;;;;18.16;78.28;100090.44;5083138;28;20655;-68
2022/06/08 05:18:43;;;;;;;13.27;4.10;;;;;;;18.20;78.03;100086.31;5082552;28;20603;-69
2022/06/08 05:21:11;;;;;;;6.33;3.10;;;;;;;18.22;77.82;100081.56;5079999;28;20303;-68
2022/06/08 05:23:40;;;;;;;6.83;2.63;;;;;;;18.19;77.21;100091.91;5081250;28;20226;-68
2022/06/08 05:26:12;;;;;;;6.40;3.00;;;;;;;18.15;77.28;100098.69;5082114;28;20460;-68
2022/06/08 05:28:43;;;;;;;9.57;3.27;;;;;;;18.14;77.18;100105.91;5081804;28;20240;-68
2022/06/08 05:31:11;;;;;;;5.13;3.17;;;;;;;18.03;77.89;100101.16;5079817;28;20210;-68
2022/06/08 05:33:39;;;;;;;8.30;3.00;;;;;;;18.08;77.77;100098.69;5074350;28;20274;-68
2022/06/08 05:36:08;;;;;;;7.50;2.90;;;;;;;18.15;78.00;100087.97;5080017;28;20664;-68
2022/06/08 05:38:36;;;;;;;6.90;3.50;;;;;;;18.07;78.43;100088.16;5077833;28;20683;-68
2022/06/08 05:41:04;;;;;;;7.10;3.33;;;;;;;18.01;78.91;100089.81;5078336;28;20214;-67
2022/06/08 05:43:33;;;;;;;7.07;3.60;;;;;;;18.16;77.92;100090.44;5077996;28;20234;-67
2022/06/08 05:46:01;;;;;;;7.50;3.10;;;;;;;18.14;78.12;100081.75;5077470;28;20214;-68
2022/06/08 05:48:28;;;;;;;7.43;2.47;;;;;;;18.06;78.74;100079.28;5078968;28;20209;-68
2022/06/08 05:50:56;;;;;;;5.47;2.67;;;;;;;18.05;78.67;100073.09;5075614;28;20231;-68
2022/06/08 05:53:24;;;;;;;5.40;2.67;;;;;;;18.11;78.27;100079.50;5080279;28;20289;-68
2022/06/08 05:55:52;;;;;;;4.83;2.60;;;;;;;18.24;77.77;100071.44;5076493;28;20209;-67
2022/06/08 05:58:20;;;;;;;7.70;2.83;;;;;;;18.29;77.01;100071.66;5079261;28;20257;-67
2022/06/08 06:00:49;;;;;;;10.13;2.90;;;;;;;18.21;76.66;100065.66;5080741;28;20217;-68
2022/06/08 06:03:19;;;;;;;11.10;3.07;;;;;;;18.21;76.61;100071.03;5088787;28;20218;-68
2022/06/08 06:05:47;;;;;;;5.70;2.97;;;;;;;18.17;76.63;100059.91;5089058;28;20225;-68
2022/06/08 06:08:14;;;;;;;7.33;2.80;;;;;;;18.20;76.85;100074.75;5084771;28;20202;-68
2022/06/08 06:10:44;;;;;;;6.00;2.70;;;;;;;18.27;76.06;100076.41;5085309;28;20216;-68
2022/06/08 06:13:12;;;;;;;6.93;2.97;;;;;;;18.40;75.60;100075.56;5081902;28;20213;-68
2022/06/08 06:15:40;;;;;;;6.73;2.60;;;;;;;18.47;75.35;100080.94;5082220;28;21391;-69
2022/06/08 06:18:16;;;;;;;9.43;2.83;;;;;;;18.51;75.17;100082.16;5084366;28;20206;-68
2022/06/08 06:20:48;;;;;;;5.67;2.90;;;;;;;18.54;74.74;100076.38;5082447;28;20297;-69
2022/06/08 06:23:17;;;;;;;10.87;3.37;;;;;;;18.65;74.24;100078.44;5080965;28;20219;-68
2022/06/08 06:25:45;;;;;;;9.23;3.33;;;;;;;18.67;73.26;100077.19;5084812;28;20206;-68
2022/06/08 06:28:13;;;;;;;8.03;3.23;;;;;;;18.67;72.64;100079.06;5084795;28;20622;-68
2022/06/08 06:30:40;;;;;;;6.53;2.83;;;;;;;18.83;72.44;100065.16;5084839;28;20233;-68
2022/06/08 06:33:11;;;;;;;8.03;2.80;;;;;;;18.95;71.51;100062.66;5085231;28;20256;-68
2022/06/08 06:35:43;;;;;;;7.00;2.20;;;;;;;18.96;70.32;100065.13;5083354;28;20298;-68
2022/06/08 06:38:11;;;;;;;9.00;3.40;;;;;;;18.86;70.72;100072.81;5082117;28;20203;-68
2022/06/08 06:40:39;;;;;;;9.70;3.10;;;;;;;18.83;71.12;100065.16;5088597;28;20670;-69
2022/06/08 06:43:07;;;;;;;7.17;2.80;;;;;;;18.87;71.49;100061.03;5092857;28;20667;-69
2022/06/08 06:45:35;;;;;;;11.73;3.43;;;;;;;18.94;71.23;100058.31;5096278;28;20289;-69
2022/06/08 06:48:03;;;;;;;6.97;2.47;;;;;;;19.03;70.77;100065.09;5095798;28;20986;-70
2022/06/08 06:50:31;;;;;;;6.87;2.50;;;;;;;19.27;69.48;100055.47;5090877;28;20223;-69
2022/06/08 06:53:00;;;;;;;5.77;2.80;;;;;;;19.36;68.42;100046.13;5100733;28;20203;-69
2022/06/08 06:55:34;;;;;;;7.97;2.77;;;;;;;19.37;67.26;100040.53;5095397;28;20202;-70
2022/06/08 06:58:02;;;;;;;7.40;2.70;;;;;;;19.33;67.79;100039.34;5099305;28;20298;-70
2022/06/08 07:00:30;;;;;;;5.20;2.47;;;;;;;19.39;67.56;100027.72;5102897;28;20203;-69
2022/06/08 07:02:57;;;;;;;7.33;2.27;;;;;;;19.44;67.13;100032.41;5094351;28;20686;-69
2022/06/08 07:05:28;;;;;;;7.30;2.27;;;;;;;19.49;67.21;100027.28;5098031;28;20751;-69
2022/06/08 07:07:56;;;;;;;8.03;2.43;;;;;;;19.57;66.91;100018.13;5099872;28;20209;-69
2022/06/08 07:10:25;;;;;;;7.20;1.93;;;;;;;19.67;66.42;100024.66;5103384;28;20729;-69
2022/06/08 07:12:53;;;;;;;8.13;2.77;;;;;;;19.75;65.59;100021.72;5100136;28;20209;-69
2022/06/08 07:15:23;;;;;;;7.47;2.50;;;;;;;19.84;65.26;100019.56;5092692;28;20249;-69
2022/06/08 07:17:51;;;;;;;6.57;1.80;;;;;;;19.92;64.26;100013.91;5088325;28;20673;-69
2022/06/08 07:20:20;;;;;;;6.27;2.00;;;;;;;20.02;63.58;100011.56;5093655;28;20207;-70
2022/06/08 07:22:50;;;;;;;7.70;2.37;;;;;;;19.95;63.94;100021.56;5089928;28;20233;-69
2022/06/08 07:25:20;;;;;;;6.90;1.73;;;;;;;19.99;62.04;100016.53;5090609;28;20259;-69
2022/06/08 07:27:49;;;;;;;5.80;1.77;;;;;;;20.04;62.29;100014.03;5088156;28;20672;-70
2022/06/08 07:30:16;;;;;;;7.30;2.57;;;;;;;20.20;62.35;100016.16;5087876;28;20230;-67
2022/06/08 07:32:44;;;;;;;5.60;2.13;;;;;;;20.33;62.19;100007.09;5090774;28;20241;-69
2022/06/08 07:35:13;;;;;;;6.67;1.93;;;;;;;20.50;62.46;100002.81;5095883;28;20293;-68
2022/06/08 07:37:40;;;;;;;6.77;2.17;;;;;;;20.64;62.56;99997.06;5092909;28;20243;-69
2022/06/08 07:40:10;;;;;;;5.70;1.80;;;;;;;20.76;62.35;100007.91;5088845;28;20211;-68
2022/06/08 07:42:38;;;;;;;7.63;1.97;;;;;;;20.73;62.63;100007.53;5086038;28;20205;-68
2022/06/08 07:45:11;;;;;;;7.17;2.20;;;;;;;20.87;60.91;99998.25;5088345;28;20234;-68
2022/06/08 07:49:36;;;;;;;6.50;2.03;;;;;;;21.09;59.90;99991.34;5088526;28;20294;-68
2022/06/08 07:50:27;;;;;;;8.00;2.30;;;;;;;21.19;59.66;99993.53;5089179;28;20326;-68
2022/06/08 07:52:56;;;;;;;7.93;2.23;;;;;;;21.22;58.64;99996.56;5088585;28;20206;-68
2022/06/08 07:55:25;;;;;;;5.23;2.13;;;;;;;21.21;58.74;99989.53;5086228;28;20691;-69
2022/06/08 07:57:53;;;;;;;17.43;2.67;;;;;;;21.18;58.65;99994.56;5085763;28;20222;-69
2022/06/08 08:00:23;;;;;;;7.60;2.30;;;;;;;21.10;58.56;99992.97;5086631;28;20207;-69
2022/06/08 08:02:51;;;;;;;9.87;2.03;;;;;;;21.17;58.44;99988.34;5081688;28;20284;-69
2022/06/08 08:05:19;;;;;;;7.33;2.17;;;;;;;21.37;57.47;99986.16;5090220;28;20613;-69
2022/06/08 08:07:47;;;;;;;6.70;2.20;;;;;;;21.42;57.89;99973.88;5085976;28;22138;-69
2022/06/08 08:10:18;;;;;;;6.13;1.83;;;;;;;21.58;56.38;99978.59;5086217;28;20217;-68
2022/06/08 08:12:47;;;;;;;7.23;1.77;;;;;;;21.54;56.32;99966.66;5090837;28;20236;-68
2022/06/08 08:15:16;;;;;;;11.27;1.80;;;;;;;21.52;56.77;99968.75;5086248;28;20229;-69
2022/06/08 08:17:48;;;;;;;4.47;1.47;;;;;;;21.69;55.64;99969.72;5089213;28;20709;-69
2022/06/08 08:20:18;;;;;;;7.33;1.63;;;;;;;21.79;55.35;99967.28;5082018;28;20252;-69
2022/06/08 08:22:46;;;;;;;5.87;1.60;;;;;;;22.06;54.65;99965.78;5088623;28;20566;-70
2022/06/08 08:25:16;;;;;;;12.77;1.47;;;;;;;22.03;53.52;99954.63;5092291;28;20354;-69
2022/06/08 08:27:44;;;;;;;5.90;1.60;;;;;;;21.95;53.58;99961.19;5088076;28;20667;-68
2022/06/08 08:30:13;;;;;;;10.00;1.70;;;;;;;22.04;52.62;99957.09;5082450;28;20337;-69
2022/06/08 08:32:41;;;;;;;6.93;2.43;;;;;;;22.19;50.66;99951.22;5094524;28;20286;-71
2022/06/08 08:35:11;;;;;;;6.77;1.50;;;;;;;22.27;51.25;99934.66;5092251;28;20294;-71
2022/06/08 08:37:40;;;;;;;4.93;1.10;;;;;;;22.16;51.54;99937.38;5088341;28;20293;-70
2022/06/08 08:40:18;;;;;;;7.00;1.50;;;;;;;22.12;51.69;99927.03;5090060;28;20207;-70
2022/06/08 08:42:45;;;;;;;6.13;1.50;;;;;;;22.10;50.30;99923.75;5089685;28;20225;-71
2022/06/08 08:45:15;;;;;;;4.50;1.13;;;;;;;22.26;49.91;99916.78;5086822;28;20250;-70
2022/06/08 08:48:02;;;;;;;5.07;1.20;;;;;;;22.29;50.90;99919.03;5085776;28;20664;-71
2022/06/08 08:50:38;;;;;;;4.97;0.97;;;;;;;22.55;49.33;99917.69;5089717;28;20556;-70
2022/06/08 08:53:17;;;;;;;7.10;1.43;;;;;;;22.61;49.79;99914.00;5079437;28;20249;-71
2022/06/08 08:55:50;;;;;;;10.97;1.97;;;;;;;22.64;50.58;99913.53;5097053;28;20209;-68
2022/06/08 08:58:21;;;;;;;8.03;1.97;;;;;;;22.61;50.54;99902.38;5091518;28;20259;-70
2022/06/08 09:00:52;;;;;;;5.60;1.77;;;;;;;22.86;49.76;99895.63;5078928;28;20297;-70
2022/06/08 09:03:30;;;;;;;7.40;1.57;;;;;;;23.04;49.10;99904.59;5089493;28;20242;-71
2022/06/08 09:06:02;;;;;;;8.13;1.63;;;;;;;22.97;49.51;99899.31;5088771;28;20226;-70
2022/06/08 09:08:30;;;;;;;7.80;1.70;;;;;;;23.14;49.38;99892.06;5101256;28;20191;-69
2022/06/08 09:11:00;;;;;;;5.47;1.07;;;;;;;23.16;48.57;99886.41;5085705;28;20203;-71
2022/06/08 09:13:35;;;;;;;8.53;1.50;;;;;;;23.04;48.34;99891.09;5086961;28;20294;-71
2022/06/08 09:16:09;;;;;;;6.83;1.97;;;;;;;22.87;48.73;99886.44;5086358;28;20195;-70
2022/06/08 09:18:40;;;;;;;7.17;1.70;;;;;;;22.74;49.36;99877.78;5076968;28;20246;-70
2022/06/08 09:21:34;;;;;;;3.47;1.00;;;;;;;22.53;49.28;99879.25;5085981;28;20209;-70
2022/06/08 09:24:12;;;;;;;4.83;1.50;;;;;;;22.39;49.56;99877.91;5086356;28;20271;-70
2022/06/08 09:26:42;;;;;;;5.10;1.60;;;;;;;22.16;50.28;99878.81;5086649;28;20693;-69
2022/06/08 09:29:21;;;;;;;6.23;1.37;;;;;;;22.19;50.79;99872.09;5085595;28;20605;-70
2022/06/08 09:31:50;;;;;;;6.70;2.03;;;;;;;22.12;50.71;99872.22;5084386;28;20211;-69
2022/06/08 09:34:23;;;;;;;4.63;1.23;;;;;;;22.16;50.55;99875.28;5085814;28;20245;-68
2022/06/08 09:37:13;;;;;;;6.80;1.50;;;;;;;22.11;50.88;99876.78;5085956;28;20238;-68
2022/06/08 09:39:42;;;;;;;6.57;1.43;;;;;;;21.98;51.16;99873.53;5083450;28;20289;-69
2022/06/08 09:42:26;;;;;;;3.80;1.07;;;;;;;22.02;50.14;99870.13;5091997;28;20238;-69
2022/06/08 09:45:03;;;;;;;6.63;1.17;;;;;;;22.12;49.90;99874.91;5090900;28;20262;-69
2022/06/08 09:53:36;;;;;;;9.17;1.40;;;;;;;22.20;49.92;99873.72;5098466;28;20245;-71
2022/06/08 09:56:15;;;;;;;5.53;1.40;;;;;;;22.34;50.09;99862.41;5093896;28;20320;-71
2022/06/08 09:58:59;;;;;;;4.67;1.43;;;;;;;22.48;49.84;99854.88;5090151;28;20213;-72
2022/06/08 10:01:34;;;;;;;4.17;1.20;;;;;;;22.60;49.30;99858.34;5091871;28;20238;-71
2022/06/08 10:04:31;;;;;;;5.07;1.30;;;;;;;22.61;49.57;99851.84;5092015;28;20213;-70
2022/06/08 10:07:19;;;;;;;6.20;1.53;;;;;;;22.68;49.84;99849.03;5093839;28;20216;-70
2022/06/08 10:10:01;;;;;;;5.37;1.20;;;;;;;22.75;49.44;99845.16;5099084;28;20591;-68
2022/06/08 10:12:36;;;;;;;3.50;1.10;;;;;;;22.94;48.54;99832.25;5076421;28;20719;-69
2022/06/08 10:15:14;;;;;;;11.97;1.33;;;;;;;23.09;48.66;99832.50;5082911;28;20663;-69
2022/06/08 10:17:46;;;;;;;4.37;1.40;;;;;;;23.37;48.50;99833.47;5086770;28;20242;-68
2022/06/08 10:20:17;;;;;;;4.40;1.30;;;;;;;23.32;48.16;99823.38;5087551;28;20301;-69
2022/06/08 10:22:50;;;;;;;7.40;1.38;;;;;;;23.38;48.05;99817.00;5083107;28;20572;-68
2022/06/08 10:25:23;;;;;;;6.65;1.35;;;;;;;23.41;47.66;99818.38;5083620;28;20233;-68
2022/06/08 10:27:55;;;;;;;6.70;1.55;;;;;;;23.27;47.65;99815.19;5087524;28;20205;-69
2022/06/08 10:30:30;;;;;;;5.47;1.40;;;;;;;23.07;47.86;99807.56;5089664;28;20226;-69
2022/06/08 10:33:05;;;;;;;5.90;1.55;;;;;;;22.96;48.06;99818.44;5098054;28;20211;-67
2022/06/08 10:35:41;;;;;;;6.47;1.00;;;;;;;22.87;48.13;99821.56;5088715;28;20626;-68
2022/06/08 10:38:19;;;;;;;6.57;1.53;;;;;;;22.77;47.46;99809.78;5088260;28;20518;-68
2022/06/08 10:40:55;;;;;;;9.67;1.40;;;;;;;22.60;47.93;99807.00;5084388;28;20358;-70
2022/06/08 10:43:27;;;;;;;6.93;1.43;;;;;;;22.52;48.36;99808.19;5091539;28;20678;-69
2022/06/08 10:46:00;;;;;;;4.17;1.17;;;;;;;22.54;47.93;99807.97;5088281;28;20226;-69
2022/06/08 10:48:45;;;;;;;8.97;1.20;;;;;;;22.47;48.26;99799.19;5097109;28;20199;-69
2022/06/08 10:51:29;;;;;;;5.87;1.37;;;;;;;22.64;47.49;99797.34;5095356;28;20305;-67
2022/06/08 10:57:00;;;;;;;6.33;0.97;;;;;;;22.56;47.25;99770.72;5087110;28;20251;-68
2022/06/08 10:59:31;;;;;;;9.80;1.33;;;;;;;22.67;47.14;99771.72;5089391;28;20664;-69
2022/06/08 11:02:24;;;;;;;6.93;1.50;;;;;;;22.95;46.50;99776.28;5090647;28;20199;-69
2022/06/08 11:04:58;;;;;;;8.13;1.57;;;;;;;23.39;46.53;99771.84;5088680;28;20204;-69
2022/06/08 11:07:27;;;;;;;4.70;1.20;;;;;;;23.68;45.05;99767.09;5098541;28;20286;-68
2022/06/08 11:10:05;;;;;;;6.10;1.20;;;;;;;23.67;44.62;99771.69;5083387;28;20286;-68
2022/06/08 11:13:13;;;;;;;3.70;1.30;;;;;;;23.60;45.17;99766.47;5084166;28;20218;-69
2022/06/08 11:15:47;;;;;;;4.70;1.00;;;;;;;23.65;43.87;99773.03;5089190;28;20424;-67
2022/06/08 11:18:31;;;;;;;4.43;1.10;;;;;;;23.50;43.89;99766.34;5085080;28;20206;-68
2022/06/08 11:21:26;;;;;;;3.57;1.00;;;;;;;23.24;43.89;99761.59;5096017;28;20293;-68
2022/06/08 11:23:59;;;;;;;14.35;0.95;;;;;;;22.99;44.67;99758.50;5089202;28;20656;-68
2022/06/08 11:26:44;;;;;;;6.13;1.25;;;;;;;22.93;44.66;99754.09;5088379;28;20219;-68
2022/06/08 11:29:46;;;;;;;4.17;1.27;;;;;;;22.94;44.85;99759.25;5088519;28;20309;-68
2022/06/08 11:32:43;;;;;;;5.10;1.40;;;;;;;22.78;45.57;99752.75;5086721;28;20320;-67
2022/06/08 11:35:41;;;;;;;4.20;1.10;;;;;;;22.70;45.38;99747.72;5070206;28;20206;-69
2022/06/08 11:38:18;;;;;;;6.27;1.20;;;;;;;22.58;44.72;99740.75;5090496;28;20666;-68
2022/06/08 11:40:50;;;;;;;5.50;1.10;;;;;;;22.61;44.21;99741.06;5085512;28;20210;-69
2022/06/08 11:43:33;;;;;;;6.57;1.67;;;;;;;22.55;43.95;99747.47;5087174;28;20206;-69
2022/06/08 11:46:04;;;;;;;13.03;1.67;;;;;;;22.51;44.59;99743.63;5086402;28;20293;-68
2022/06/08 11:48:47;;;;;;;6.70;1.27;;;;;;;22.53;44.35;99738.78;5087817;28;20204;-68
2022/06/08 11:51:34;;;;;;;12.33;1.63;;;;;;;22.52;43.77;99739.84;5087987;28;20304;-68
2022/06/08 11:54:17;;;;;;;7.63;1.13;;;;;;;22.50;43.47;99750.91;5089242;28;20199;-71
2022/06/08 11:57:06;;;;;;;6.67;1.27;;;;;;;22.31;44.46;99746.78;5089712;28;20202;-67
2022/06/08 11:59:39;;;;;;;4.40;1.27;;;;;;;22.34;44.83;99734.69;5087602;28;20230;-68
2022/06/08 12:02:20;;;;;;;9.30;1.07;;;;;;;22.51;44.08;99730.13;5085628;28;20318;-67
2022/06/08 12:04:51;;;;;;;4.60;0.83;;;;;;;22.57;43.56;99726.44;5088980;28;20364;-69